createdAt,value
2023-02-19T00:00:02.854Z,6.80
2023-02-19T00:02:31.390Z,6.83
2023-02-19T00:04:59.965Z,6.63
2023-02-19T00:07:28.480Z,6.76
2023-02-19T00:09:57.092Z,6.73
2023-02-19T00:12:26.075Z,6.68
2023-02-19T00:14:55.960Z,6.83
2023-02-19T00:17:25.612Z,6.78
2023-02-19T00:19:55.197Z,6.79
2023-02-19T00:22:24.098Z,6.51
2023-02-19T00:24:52.803Z,6.70
2023-02-19T00:27:21.340Z,6.53
2023-02-19T00:29:50.247Z,6.67
2023-02-19T00:32:18.624Z,6.78
2023-02-19T00:34:48.768Z,6.86
2023-02-19T00:37:19.830Z,6.95
2023-02-19T00:39:48.927Z,6.81
2023-02-19T00:42:17.347Z,6.85
2023-02-19T00:44:45.938Z,6.88
2023-02-19T00:47:14.335Z,6.86
2023-02-19T00:49:43.041Z,7.00
2023-02-19T00:52:16.444Z,6.97
2023-02-19T00:54:48.042Z,6.85
2023-02-19T00:57:19.220Z,6.86
2023-02-19T00:59:48.563Z,6.84
2023-02-19T01:02:17.014Z,7.02
2023-02-19T01:04:45.638Z,6.98
2023-02-19T01:07:14.151Z,6.98
2023-02-19T01:09:42.649Z,7.01
2023-02-19T01:12:12.596Z,7.03
2023-02-19T01:14:41.146Z,7.11
2023-02-19T01:17:09.672Z,7.06
2023-02-19T01:19:41.529Z,7.00
2023-02-19T01:22:10.887Z,6.94
2023-02-19T01:24:39.516Z,6.99
2023-02-19T01:27:07.930Z,6.69
2023-02-19T01:29:36.317Z,6.58
2023-02-19T01:32:04.961Z,6.68
2023-02-19T01:34:34.377Z,6.76
2023-02-19T01:37:03.776Z,6.88
2023-02-19T01:39:32.146Z,6.91
2023-02-19T01:42:00.831Z,6.88
2023-02-19T01:44:29.110Z,6.90
2023-02-19T01:46:58.975Z,6.91
2023-02-19T01:49:45.251Z,6.90
2023-02-19T01:52:23.460Z,6.64
2023-02-19T01:54:53.457Z,6.51
2023-02-19T01:57:27.093Z,6.69
2023-02-19T01:59:59.035Z,6.71
2023-02-19T02:02:28.891Z,6.52
2023-02-19T02:05:00.543Z,6.73
2023-02-19T02:07:47.341Z,6.63
2023-02-19T02:10:21.534Z,6.53
2023-02-19T02:12:52.975Z,6.79
2023-02-19T02:15:22.584Z,6.83
2023-02-19T02:17:57.548Z,6.79
2023-02-19T02:20:40.926Z,6.73
2023-02-19T02:23:22.933Z,6.61
2023-02-19T02:26:05.703Z,6.63
2023-02-19T02:29:04.509Z,6.63
2023-02-19T02:31:41.908Z,6.42
2023-02-19T02:34:15.064Z,6.49
2023-02-19T02:36:47.722Z,6.34
2023-02-19T02:39:20.897Z,6.51
2023-02-19T02:42:18.973Z,6.52
2023-02-19T02:45:07.159Z,6.43
2023-02-19T02:47:42.434Z,6.48
2023-02-19T02:50:26.322Z,6.38
2023-02-19T02:53:22.223Z,6.47
2023-02-19T02:55:53.752Z,6.43
2023-02-19T02:58:25.828Z,6.54
2023-02-19T03:01:18.790Z,6.60
2023-02-19T03:03:50.583Z,6.60
2023-02-19T03:06:22.080Z,6.61
2023-02-19T03:09:07.794Z,6.55
2023-02-19T03:11:58.023Z,6.52
2023-02-19T03:14:56.380Z,6.55
2023-02-19T03:17:58.699Z,6.58
2023-02-19T03:20:28.016Z,6.28
2023-02-19T03:22:57.114Z,6.25
2023-02-19T03:25:51.286Z,6.40
2023-02-19T03:28:45.057Z,6.22
2023-02-19T03:31:19.727Z,6.20
2023-02-19T03:33:52.414Z,6.18
2023-02-19T03:36:28.669Z,6.30
2023-02-19T03:39:07.009Z,6.37
2023-02-19T03:41:44.711Z,6.51
2023-02-19T03:44:45.268Z,6.59
2023-02-19T03:47:28.144Z,6.53
2023-02-19T03:50:02.153Z,6.27
2023-02-19T03:52:45.911Z,6.38
2023-02-19T03:55:21.684Z,6.37
2023-02-19T03:58:04.879Z,6.40
2023-02-19T04:00:41.268Z,6.38
2023-02-19T04:03:20.853Z,6.41
2023-02-19T04:05:53.984Z,6.25
2023-02-19T04:08:24.685Z,6.39
2023-02-19T04:10:54.866Z,6.40
2023-02-19T04:13:28.269Z,6.37
2023-02-19T04:16:04.705Z,6.39
2023-02-19T04:18:38.418Z,6.48
2023-02-19T04:21:09.423Z,6.36
2023-02-19T04:23:44.948Z,6.37
2023-02-19T04:26:15.724Z,6.33
2023-02-19T04:28:44.613Z,6.37
2023-02-19T04:31:14.015Z,6.42
2023-02-19T04:33:42.606Z,6.45
2023-02-19T04:36:12.089Z,6.28
2023-02-19T04:38:40.678Z,6.25
2023-02-19T04:41:10.441Z,6.25
2023-02-19T04:43:38.740Z,6.37
2023-02-19T04:46:07.675Z,6.38
2023-02-19T04:48:35.956Z,6.37
2023-02-19T04:51:08.147Z,6.21
2023-02-19T04:53:37.468Z,6.03
2023-02-19T04:56:12.342Z,6.15
2023-02-19T04:58:45.051Z,6.02
2023-02-19T05:01:14.332Z,5.99
2023-02-19T05:03:43.075Z,6.09
2023-02-19T05:06:13.901Z,6.09
2023-02-19T05:08:42.826Z,6.16
2023-02-19T05:11:13.215Z,6.15
2023-02-19T05:13:41.581Z,5.84
2023-02-19T05:16:16.310Z,5.94
2023-02-19T05:18:46.715Z,6.15
2023-02-19T05:21:16.112Z,6.30
2023-02-19T05:23:44.955Z,6.34
2023-02-19T05:26:20.274Z,6.33
2023-02-19T05:28:51.065Z,6.25
2023-02-19T05:31:20.548Z,6.38
2023-02-19T05:33:51.456Z,6.43
2023-02-19T05:36:21.821Z,6.32
2023-02-19T05:38:55.406Z,6.38
2023-02-19T05:41:26.968Z,6.26
2023-02-19T05:43:56.933Z,6.26
2023-02-19T05:46:29.580Z,5.97
2023-02-19T05:48:58.823Z,6.03
2023-02-19T05:51:28.155Z,6.02
2023-02-19T05:53:57.653Z,6.10
2023-02-19T05:56:38.219Z,6.16
2023-02-19T05:59:21.116Z,6.25
2023-02-19T06:01:51.039Z,6.19
2023-02-19T06:04:20.567Z,6.08
2023-02-19T06:06:51.910Z,6.14
2023-02-19T06:09:19.976Z,6.11
2023-02-19T06:11:48.370Z,6.17
2023-02-19T06:14:20.197Z,6.12
2023-02-19T06:16:48.602Z,5.92
2023-02-19T06:19:17.796Z,5.93
2023-02-19T06:21:46.934Z,6.03
2023-02-19T06:24:16.184Z,5.90
2023-02-19T06:26:44.678Z,6.02
2023-02-19T06:29:13.226Z,5.96
2023-02-19T06:31:41.728Z,6.12
2023-02-19T06:34:10.203Z,6.23
2023-02-19T06:36:38.589Z,6.31
2023-02-19T06:39:07.694Z,6.23
2023-02-19T06:41:38.187Z,6.20
2023-02-19T06:44:06.664Z,6.27
2023-02-19T06:46:35.885Z,6.30
2023-02-19T06:49:05.571Z,6.32
2023-02-19T06:51:33.902Z,6.31
2023-02-19T06:54:04.932Z,6.30
2023-02-19T06:56:40.946Z,6.25
2023-02-19T06:59:12.629Z,6.25
2023-02-19T07:01:41.285Z,6.29
2023-02-19T07:04:10.296Z,6.38
2023-02-19T07:06:40.508Z,6.43
2023-02-19T07:09:10.391Z,6.36
2023-02-19T07:11:40.943Z,6.38
2023-02-19T07:14:16.128Z,6.36
2023-02-19T07:16:44.930Z,6.43
2023-02-19T07:19:14.139Z,6.42
2023-02-19T07:21:45.892Z,6.42
2023-02-19T07:24:14.436Z,6.36
2023-02-19T07:26:45.259Z,6.54
2023-02-19T07:29:16.402Z,6.62
2023-02-19T07:31:44.788Z,6.65
2023-02-19T07:34:14.285Z,6.67
2023-02-19T07:36:42.644Z,6.60
2023-02-19T07:39:13.507Z,6.85
2023-02-19T07:41:41.782Z,6.94
2023-02-19T07:44:10.095Z,6.86
2023-02-19T07:46:38.920Z,6.77
2023-02-19T07:49:07.582Z,6.76
2023-02-19T07:51:35.918Z,6.84
2023-02-19T07:54:04.684Z,6.91
2023-02-19T07:56:35.988Z,6.85
2023-02-19T07:59:05.348Z,6.74
2023-02-19T08:01:52.305Z,6.85
2023-02-19T08:04:20.625Z,6.75
2023-02-19T08:06:51.702Z,6.84
2023-02-19T08:09:20.526Z,6.84
2023-02-19T08:12:07.341Z,6.88
2023-02-19T08:14:35.599Z,6.88
2023-02-19T08:17:03.828Z,6.92
2023-02-19T08:19:32.292Z,6.89
2023-02-19T08:22:05.521Z,6.92
2023-02-19T08:24:34.180Z,6.94
2023-02-19T08:27:02.336Z,7.08
2023-02-19T08:29:30.821Z,7.13
2023-02-19T08:31:59.369Z,7.03
2023-02-19T08:34:27.507Z,6.99
2023-02-19T08:36:55.617Z,7.02
2023-02-19T08:39:24.605Z,7.12
2023-02-19T08:41:52.859Z,7.17
2023-02-19T08:44:21.948Z,7.10
2023-02-19T08:46:50.681Z,7.14
2023-02-19T08:49:19.100Z,7.18
2023-02-19T08:51:47.437Z,7.26
2023-02-19T08:54:15.906Z,7.32
2023-02-19T08:56:44.503Z,7.34
2023-02-19T08:59:12.811Z,7.34
2023-02-19T09:01:41.491Z,7.36
2023-02-19T09:04:13.242Z,7.40
2023-02-19T09:06:41.458Z,7.47
2023-02-19T09:09:09.855Z,7.48
2023-02-19T09:11:41.503Z,7.41
2023-02-19T09:14:09.887Z,7.34
2023-02-19T09:16:38.184Z,7.38
2023-02-19T09:19:09.742Z,7.46
2023-02-19T09:21:38.615Z,7.51
2023-02-19T09:24:09.735Z,7.47
2023-02-19T09:26:38.709Z,7.50
2023-02-19T09:29:07.039Z,7.53
2023-02-19T09:31:35.533Z,7.62
2023-02-19T09:34:04.170Z,7.73
2023-02-19T09:36:33.817Z,7.88
2023-02-19T09:39:04.106Z,7.88
2023-02-19T09:41:34.412Z,7.85
2023-02-19T09:44:04.882Z,7.77
2023-02-19T09:46:44.443Z,7.83
2023-02-19T09:49:26.040Z,7.85
2023-02-19T09:52:11.786Z,7.84
2023-02-19T09:54:42.776Z,7.77
2023-02-19T09:57:18.522Z,7.76
2023-02-19T09:59:51.217Z,7.85
2023-02-19T10:02:21.245Z,7.96
2023-02-19T10:04:53.886Z,7.89
2023-02-19T10:07:46.990Z,7.83
2023-02-19T10:10:15.466Z,7.81
2023-02-19T10:12:50.761Z,7.82
2023-02-19T10:15:37.058Z,7.81
2023-02-19T10:18:10.088Z,7.80
2023-02-19T10:20:40.666Z,7.86
2023-02-19T10:23:14.504Z,7.91
2023-02-19T10:26:01.407Z,8.04
2023-02-19T10:28:35.997Z,8.06
2023-02-19T10:31:12.131Z,8.05
2023-02-19T10:34:02.436Z,7.99
2023-02-19T10:36:42.386Z,7.94
2023-02-19T10:39:22.782Z,7.95
2023-02-19T10:41:52.197Z,8.02
2023-02-19T10:44:29.614Z,8.17
2023-02-19T10:47:00.238Z,8.36
2023-02-19T10:49:38.701Z,8.37
2023-02-19T10:52:20.492Z,8.42
2023-02-19T10:55:15.002Z,8.44
2023-02-19T10:57:43.197Z,8.37
2023-02-19T11:00:17.319Z,8.29
2023-02-19T11:02:46.134Z,8.24
2023-02-19T11:05:21.157Z,8.21
2023-02-19T11:07:55.067Z,8.20
2023-02-19T11:10:28.712Z,8.35
2023-02-19T11:13:06.110Z,8.42
2023-02-19T11:15:36.914Z,8.36
2023-02-19T11:18:05.246Z,8.40
2023-02-19T11:20:34.310Z,8.45
2023-02-19T11:23:18.007Z,8.62
2023-02-19T11:25:49.694Z,8.84
2023-02-19T11:28:23.304Z,8.87
2023-02-19T11:30:51.568Z,8.79
2023-02-19T11:33:22.587Z,8.79
2023-02-19T11:36:18.217Z,8.94
2023-02-19T11:38:46.834Z,9.18
2023-02-19T11:41:55.405Z,9.17
2023-02-19T11:44:30.850Z,8.90
2023-02-19T11:47:27.445Z,9.08
2023-02-19T11:50:18.354Z,9.61
2023-02-19T11:53:10.764Z,9.39
2023-02-19T11:56:35.202Z,9.14
2023-02-19T11:59:06.269Z,8.94
2023-02-19T12:01:49.342Z,8.98
2023-02-19T12:04:40.195Z,9.74
2023-02-19T12:07:30.346Z,9.98
2023-02-19T12:10:21.166Z,9.92
2023-02-19T12:13:11.519Z,9.97
2023-02-19T12:15:43.755Z,9.81
2023-02-19T12:18:22.034Z,9.46
2023-02-19T12:21:03.631Z,9.28
2023-02-19T12:23:55.247Z,9.09
2023-02-19T12:26:27.993Z,8.77
2023-02-19T12:29:20.049Z,8.68
2023-02-19T12:32:26.227Z,8.67
2023-02-19T12:35:10.414Z,9.88
2023-02-19T12:37:52.818Z,12.57
2023-02-19T12:40:36.208Z,15.28
2023-02-19T12:43:20.803Z,17.64
2023-02-19T12:46:00.837Z,19.55
2023-02-19T12:48:53.823Z,20.96
2023-02-19T12:51:45.910Z,21.74
2023-02-19T12:54:18.141Z,22.24
2023-02-19T12:56:56.174Z,22.83
2023-02-19T12:59:38.282Z,23.34
2023-02-19T13:02:34.190Z,23.41
2023-02-19T13:05:28.456Z,22.46
2023-02-19T13:08:06.748Z,22.75
2023-02-19T13:10:48.786Z,22.70
2023-02-19T13:13:25.697Z,22.43
2023-02-19T13:16:03.207Z,22.31
2023-02-19T13:18:52.363Z,22.33
2023-02-19T13:21:43.810Z,22.26
2023-02-19T13:24:36.253Z,21.88
2023-02-19T13:27:32.161Z,22.09
2023-02-19T13:30:21.922Z,22.65
2023-02-19T13:33:14.909Z,21.75
2023-02-19T13:36:06.297Z,20.02
2023-02-19T13:38:44.903Z,20.51
2023-02-19T13:41:27.894Z,19.01
2023-02-19T13:44:03.541Z,18.11
2023-02-19T13:46:42.530Z,16.92
2023-02-19T13:49:23.491Z,18.01
2023-02-19T13:51:56.110Z,18.63
2023-02-19T13:54:30.933Z,19.64
2023-02-19T13:57:24.179Z,20.35
2023-02-19T13:59:59.478Z,20.67
2023-02-19T14:02:31.735Z,20.67
2023-02-19T14:05:10.021Z,18.76
2023-02-19T14:08:04.980Z,19.76
2023-02-19T14:10:58.144Z,19.58
2023-02-19T14:13:51.704Z,19.61
2023-02-19T14:16:30.349Z,20.39
2023-02-19T14:18:59.021Z,18.70
2023-02-19T14:21:39.294Z,17.79
2023-02-19T14:24:15.409Z,17.48
2023-02-19T14:26:44.459Z,18.82
2023-02-19T14:29:17.747Z,19.26
2023-02-19T14:31:48.076Z,20.22
2023-02-19T14:34:23.832Z,19.66
2023-02-19T14:37:00.970Z,20.87
2023-02-19T14:39:32.387Z,21.89
2023-02-19T14:42:05.230Z,21.33
2023-02-19T14:44:45.938Z,19.84
2023-02-19T14:47:18.291Z,18.38
2023-02-19T14:49:55.069Z,16.94
2023-02-19T14:52:32.314Z,17.74
2023-02-19T14:55:20.798Z,18.24
2023-02-19T14:57:52.576Z,18.86
2023-02-19T15:00:26.045Z,19.80
2023-02-19T15:02:57.838Z,19.90
2023-02-19T15:05:36.765Z,20.50
2023-02-19T15:08:09.699Z,20.95
2023-02-19T15:10:39.599Z,20.93
2023-02-19T15:13:13.150Z,21.03
2023-02-19T15:15:52.404Z,19.21
2023-02-19T15:18:24.145Z,17.75
2023-02-19T15:21:03.116Z,19.04
2023-02-19T15:23:34.636Z,19.28
2023-02-19T15:26:03.129Z,19.38
2023-02-19T15:28:35.909Z,19.26
2023-02-19T15:31:08.575Z,18.30
2023-02-19T15:33:37.068Z,17.28
2023-02-19T15:36:09.513Z,15.02
2023-02-19T15:38:37.974Z,13.40
2023-02-19T15:41:06.796Z,12.55
2023-02-19T15:43:44.584Z,11.91
2023-02-19T15:46:20.570Z,11.31
2023-02-19T15:48:58.090Z,10.81
2023-02-19T15:51:40.615Z,10.31
2023-02-19T15:54:27.558Z,9.95
2023-02-19T15:57:01.193Z,9.56
2023-02-19T15:59:41.868Z,9.35
2023-02-19T16:02:14.449Z,9.10
2023-02-19T16:04:45.693Z,8.87
2023-02-19T16:07:27.795Z,8.74
2023-02-19T16:10:07.460Z,8.56
2023-02-19T16:12:35.656Z,8.48
2023-02-19T16:15:20.687Z,8.41
2023-02-19T16:17:49.212Z,8.26
2023-02-19T16:20:34.089Z,8.23
2023-02-19T16:23:06.069Z,8.03
2023-02-19T16:25:42.182Z,7.91
2023-02-19T16:28:24.780Z,7.77
2023-02-19T16:31:02.718Z,7.63
2023-02-19T16:33:37.290Z,7.56
2023-02-19T16:36:43.380Z,7.52
2023-02-19T16:39:17.694Z,7.34
2023-02-19T16:41:49.091Z,7.33
2023-02-19T16:44:36.657Z,7.24
2023-02-19T16:47:11.254Z,7.22
2023-02-19T16:49:43.297Z,7.20
2023-02-19T16:52:19.008Z,7.14
2023-02-19T16:54:48.478Z,7.06
2023-02-19T16:57:17.197Z,7.01
2023-02-19T16:59:45.705Z,6.97
2023-02-19T17:02:21.222Z,6.94
2023-02-19T17:04:52.175Z,6.92
2023-02-19T17:07:21.086Z,6.92
2023-02-19T17:09:49.723Z,6.86
2023-02-19T17:12:18.930Z,6.81
2023-02-19T17:14:52.914Z,6.76
2023-02-19T17:17:21.348Z,6.70
2023-02-19T17:19:54.496Z,6.66
2023-02-19T17:22:22.567Z,6.62
2023-02-19T17:24:51.385Z,6.61
2023-02-19T17:27:19.541Z,6.51
2023-02-19T17:32:33.593Z,6.43
2023-02-19T17:35:01.936Z,6.39
2023-02-19T17:37:30.183Z,6.39
2023-02-19T17:39:58.368Z,6.36
2023-02-19T17:42:26.704Z,6.30
2023-02-19T17:44:55.222Z,6.22
2023-02-19T17:47:24.398Z,6.17
2023-02-19T17:49:52.570Z,6.13
2023-02-19T17:52:21.297Z,6.12
2023-02-19T17:54:50.430Z,6.12
2023-02-19T17:57:18.938Z,6.13
2023-02-19T17:59:49.651Z,6.07
2023-02-19T18:02:18.439Z,5.98
2023-02-19T18:04:46.911Z,5.88
2023-02-19T18:07:15.637Z,5.81
2023-02-19T18:09:44.424Z,5.76
2023-02-19T18:12:13.601Z,5.71
2023-02-19T18:14:42.520Z,5.69
2023-02-19T18:17:11.051Z,5.63
2023-02-19T18:19:39.529Z,5.62
2023-02-19T18:22:09.074Z,5.61
2023-02-19T18:24:38.377Z,5.59
2023-02-19T18:27:06.810Z,5.56
2023-02-19T18:29:35.458Z,5.54
2023-02-19T18:32:04.678Z,5.52
2023-02-19T18:34:33.772Z,5.51
2023-02-19T18:37:02.184Z,5.45
2023-02-19T18:39:31.054Z,5.44
2023-02-19T18:42:01.005Z,5.46
2023-02-19T18:44:29.818Z,5.46
2023-02-19T18:46:58.421Z,5.47
2023-02-19T18:49:27.081Z,5.47
2023-02-19T18:51:59.288Z,5.43
2023-02-19T18:54:32.212Z,4.99
2023-02-19T18:57:02.518Z,5.22
2023-02-19T18:59:32.141Z,5.24
2023-02-19T19:02:01.634Z,5.29
2023-02-19T19:04:30.854Z,5.32
2023-02-19T19:06:59.698Z,5.25
2023-02-19T19:09:28.835Z,5.26
2023-02-19T19:11:57.340Z,5.21
2023-02-19T19:14:26.182Z,5.26
2023-02-19T19:16:54.672Z,5.28
2023-02-19T19:19:23.575Z,5.02
2023-02-19T19:21:56.595Z,5.19
2023-02-19T19:24:25.731Z,5.12
2023-02-19T19:26:55.269Z,5.09
2023-02-19T19:29:24.415Z,4.92
2023-02-19T19:31:54.339Z,5.12
2023-02-19T19:34:23.384Z,5.01
2023-02-19T19:36:52.965Z,5.00
2023-02-19T19:39:22.698Z,5.12
2023-02-19T19:41:57.971Z,5.12
2023-02-19T19:44:26.715Z,4.90
2023-02-19T19:46:56.610Z,5.07
2023-02-19T19:49:25.266Z,5.05
2023-02-19T19:51:53.908Z,5.03
2023-02-19T19:54:22.181Z,5.04
2023-02-19T19:56:51.548Z,5.04
2023-02-19T19:59:19.827Z,5.02
2023-02-19T20:01:57.553Z,4.91
2023-02-19T20:04:30.147Z,4.88
2023-02-19T20:07:00.527Z,4.83
2023-02-19T20:09:29.586Z,4.80
2023-02-19T20:12:00.954Z,4.80
2023-02-19T20:14:29.485Z,4.84
2023-02-19T20:16:57.714Z,4.81
2023-02-19T20:19:26.439Z,4.79
2023-02-19T20:21:54.943Z,4.75
2023-02-19T20:24:26.803Z,4.75
2023-02-19T20:27:02.977Z,4.62
2023-02-19T20:29:33.429Z,4.66
2023-02-19T20:32:03.994Z,4.73
2023-02-19T20:34:35.883Z,4.70
2023-02-19T20:37:05.784Z,4.73
2023-02-19T20:39:35.460Z,4.72
2023-02-19T20:42:05.080Z,4.66
2023-02-19T20:44:34.449Z,4.65
2023-02-19T20:47:03.096Z,4.62
2023-02-19T20:49:32.829Z,4.60
2023-02-19T20:52:06.133Z,4.60
2023-02-19T20:54:36.014Z,4.61
2023-02-19T20:57:06.188Z,4.58
2023-02-19T20:59:39.155Z,4.60
2023-02-19T21:02:14.806Z,4.57
2023-02-19T21:04:44.940Z,4.46
2023-02-19T21:07:13.358Z,4.55
2023-02-19T21:09:43.685Z,4.56
2023-02-19T21:12:13.004Z,4.54
2023-02-19T21:14:42.486Z,4.53
2023-02-19T21:17:12.212Z,4.51
2023-02-19T21:19:41.796Z,4.54
2023-02-19T21:22:10.836Z,4.56
2023-02-19T21:24:39.018Z,4.57
2023-02-19T21:27:07.494Z,4.56
2023-02-19T21:29:35.938Z,4.58
2023-02-19T21:32:04.890Z,4.59
2023-02-19T21:34:35.655Z,4.61
2023-02-19T21:37:04.663Z,4.62
2023-02-19T21:39:35.599Z,4.60
2023-02-19T21:42:04.352Z,4.63
2023-02-19T21:44:33.195Z,4.62
2023-02-19T21:47:02.059Z,4.58
2023-02-19T21:49:30.996Z,4.53
2023-02-19T21:51:59.974Z,4.60
2023-02-19T21:54:28.644Z,4.62
2023-02-19T21:56:57.498Z,4.53
2023-02-19T21:59:26.649Z,4.46
2023-02-19T22:01:57.363Z,4.56
2023-02-19T22:04:26.135Z,4.54
2023-02-19T22:06:56.435Z,4.53
2023-02-19T22:09:25.011Z,4.55
2023-02-19T22:11:53.406Z,4.58
2023-02-19T22:14:21.745Z,4.61
2023-02-19T22:16:50.108Z,4.65
2023-02-19T22:19:18.407Z,4.66
2023-02-19T22:21:47.448Z,4.65
2023-02-19T22:24:18.540Z,4.61
2023-02-19T22:26:48.627Z,4.46
2023-02-19T22:29:18.183Z,4.51
2023-02-19T22:31:47.593Z,4.48
2023-02-19T22:34:19.382Z,4.48
2023-02-19T22:36:48.784Z,4.44
2023-02-19T22:39:20.850Z,4.46
2023-02-19T22:41:49.974Z,4.43
2023-02-19T22:44:21.629Z,4.33
2023-02-19T22:46:52.695Z,4.32
2023-02-19T22:49:22.959Z,4.34
2023-02-19T22:51:59.115Z,4.37
2023-02-19T22:54:27.869Z,4.35
2023-02-19T22:56:56.576Z,4.37
2023-02-19T22:59:25.170Z,4.37
2023-02-19T23:01:54.398Z,4.32
2023-02-19T23:04:24.866Z,4.24
2023-02-19T23:06:53.892Z,4.23
2023-02-19T23:09:26.143Z,4.25
2023-02-19T23:12:09.040Z,4.22
2023-02-19T23:14:38.121Z,4.17
2023-02-19T23:17:07.835Z,4.21
2023-02-19T23:19:37.241Z,4.19
2023-02-19T23:22:06.179Z,4.05
2023-02-19T23:24:35.789Z,4.06
2023-02-19T23:27:04.159Z,4.04
2023-02-19T23:29:32.618Z,4.09
2023-02-19T23:32:01.394Z,4.13
2023-02-19T23:34:29.910Z,4.14
2023-02-19T23:37:00.099Z,4.11
2023-02-19T23:39:28.827Z,3.93
2023-02-19T23:42:00.960Z,3.96
2023-02-19T23:44:29.268Z,4.01
2023-02-19T23:46:57.483Z,4.08
2023-02-19T23:49:26.200Z,4.06
2023-02-19T23:51:55.342Z,3.99
2023-02-19T23:54:23.883Z,4.02
2023-02-19T23:56:52.320Z,4.02
2023-02-19T23:59:20.946Z,4.01
